sensor_id;sensor_type;location;lat;lon;timestamp;temperature;humidity
3628;DHT22;1830;49.000;12.074;2023-07-13T00:00:02;19.50;99.90
3628;DHT22;1830;49.000;12.074;2023-07-13T00:02:35;19.50;99.90
3628;DHT22;1830;49.000;12.074;2023-07-13T00:05:02;19.50;99.90
3628;DHT22;1830;49.000;12.074;2023-07-13T00:07:28;19.40;99.90
3628;DHT22;1830;49.000;12.074;2023-07-13T00:09:56;19.40;99.90
3628;DHT22;1830;49.000;12.074;2023-07-13T00:12:26;19.30;99.90
3628;DHT22;1830;49.000;12.074;2023-07-13T00:14:55;19.30;99.90
3628;DHT22;1830;49.000;12.074;2023-07-13T00:17:22;19.30;99.90
3628;DHT22;1830;49.000;12.074;2023-07-13T00:19:51;19.30;99.90
3628;DHT22;1830;49.000;12.074;2023-07-13T00:22:18;19.20;99.90
3628;DHT22;1830;49.000;12.074;2023-07-13T00:24:45;19.30;99.90
3628;DHT22;1830;49.000;12.074;2023-07-13T00:27:12;19.30;99.90
3628;DHT22;1830;49.000;12.074;2023-07-13T00:29:39;19.30;99.90
3628;DHT22;1830;49.000;12.074;2023-07-13T00:32:08;19.30;99.90
3628;DHT22;1830;49.000;12.074;2023-07-13T00:34:36;19.20;99.90
3628;DHT22;1830;49.000;12.074;2023-07-13T00:37:05;19.20;99.90
3628;DHT22;1830;49.000;12.074;2023-07-13T00:39:33;19.20;99.90
3628;DHT22;1830;49.000;12.074;2023-07-13T00:42:00;19.20;99.90
3628;DHT22;1830;49.000;12.074;2023-07-13T00:44:27;19.10;99.90
3628;DHT22;1830;49.000;12.074;2023-07-13T00:46:54;19.10;99.90
3628;DHT22;1830;49.000;12.074;2023-07-13T00:49:25;19.20;99.90
3628;DHT22;1830;49.000;12.074;2023-07-13T00:51:56;19.20;99.90
3628;DHT22;1830;49.000;12.074;2023-07-13T00:54:27;19.10;99.90
3628;DHT22;1830;49.000;12.074;2023-07-13T00:56:57;19.10;99.90
3628;DHT22;1830;49.000;12.074;2023-07-13T00:59:25;19.10;99.90
3628;DHT22;1830;49.000;12.074;2023-07-13T01:01:53;19.00;99.90
3628;DHT22;1830;49.000;12.074;2023-07-13T01:04:19;19.00;99.90
3628;DHT22;1830;49.000;12.074;2023-07-13T01:06:47;19.00;99.90
3628;DHT22;1830;49.000;12.074;2023-07-13T01:09:14;19.00;99.90
3628;DHT22;1830;49.000;12.074;2023-07-13T01:11:44;19.00;99.90
3628;DHT22;1830;49.000;12.074;2023-07-13T01:14:11;19.00;99.90
3628;DHT22;1830;49.000;12.074;2023-07-13T01:16:39;19.00;99.90
3628;DHT22;1830;49.000;12.074;2023-07-13T01:19:16;19.10;99.90
3628;DHT22;1830;49.000;12.074;2023-07-13T01:21:50;19.10;99.90
3628;DHT22;1830;49.000;12.074;2023-07-13T01:24:17;19.10;99.90
3628;DHT22;1830;49.000;12.074;2023-07-13T01:26:43;19.00;99.90
3628;DHT22;1830;49.000;12.074;2023-07-13T01:29:10;19.00;99.90
3628;DHT22;1830;49.000;12.074;2023-07-13T01:31:37;19.10;99.90
3628;DHT22;1830;49.000;12.074;2023-07-13T01:34:03;19.10;99.90
3628;DHT22;1830;49.000;12.074;2023-07-13T01:36:30;19.00;99.90
3628;DHT22;1830;49.000;12.074;2023-07-13T01:38:58;19.00;99.90
3628;DHT22;1830;49.000;12.074;2023-07-13T01:41:25;19.10;99.90
3628;DHT22;1830;49.000;12.074;2023-07-13T01:43:52;19.10;99.90
3628;DHT22;1830;49.000;12.074;2023-07-13T01:46:19;19.10;99.90
3628;DHT22;1830;49.000;12.074;2023-07-13T01:48:45;19.00;99.90
3628;DHT22;1830;49.000;12.074;2023-07-13T01:51:12;19.00;99.90
3628;DHT22;1830;49.000;12.074;2023-07-13T01:53:39;19.00;99.90
3628;DHT22;1830;49.000;12.074;2023-07-13T01:56:07;19.00;99.90
3628;DHT22;1830;49.000;12.074;2023-07-13T01:58:34;19.00;99.90
3628;DHT22;1830;49.000;12.074;2023-07-13T02:01:01;19.00;99.90
3628;DHT22;1830;49.000;12.074;2023-07-13T02:03:27;18.90;99.90
3628;DHT22;1830;49.000;12.074;2023-07-13T02:05:54;18.90;99.90
3628;DHT22;1830;49.000;12.074;2023-07-13T02:08:21;18.90;99.90
3628;DHT22;1830;49.000;12.074;2023-07-13T02:10:48;18.90;99.90
3628;DHT22;1830;49.000;12.074;2023-07-13T02:13:16;18.90;99.90
3628;DHT22;1830;49.000;12.074;2023-07-13T02:15:42;18.90;99.90
3628;DHT22;1830;49.000;12.074;2023-07-13T02:18:09;19.00;99.90
3628;DHT22;1830;49.000;12.074;2023-07-13T02:20:36;19.00;99.90
3628;DHT22;1830;49.000;12.074;2023-07-13T02:23:02;18.90;99.90
3628;DHT22;1830;49.000;12.074;2023-07-13T02:25:29;18.90;99.90
3628;DHT22;1830;49.000;12.074;2023-07-13T02:27:56;18.90;99.90
3628;DHT22;1830;49.000;12.074;2023-07-13T02:30:24;18.90;99.90
3628;DHT22;1830;49.000;12.074;2023-07-13T02:32:51;18.90;99.90
3628;DHT22;1830;49.000;12.074;2023-07-13T02:35:18;18.80;99.90
3628;DHT22;1830;49.000;12.074;2023-07-13T02:37:45;18.80;99.90
3628;DHT22;1830;49.000;12.074;2023-07-13T02:40:11;18.80;99.90
3628;DHT22;1830;49.000;12.074;2023-07-13T02:42:38;18.80;99.90
3628;DHT22;1830;49.000;12.074;2023-07-13T02:45:06;18.70;99.90
3628;DHT22;1830;49.000;12.074;2023-07-13T02:47:36;18.70;99.90
3628;DHT22;1830;49.000;12.074;2023-07-13T02:50:03;18.70;99.90
3628;DHT22;1830;49.000;12.074;2023-07-13T02:52:30;18.70;99.90
3628;DHT22;1830;49.000;12.074;2023-07-13T02:54:56;18.70;99.90
3628;DHT22;1830;49.000;12.074;2023-07-13T02:57:23;18.60;99.90
3628;DHT22;1830;49.000;12.074;2023-07-13T02:59:50;18.70;99.90
3628;DHT22;1830;49.000;12.074;2023-07-13T03:02:17;18.60;99.90
3628;DHT22;1830;49.000;12.074;2023-07-13T03:04:45;18.60;99.90
3628;DHT22;1830;49.000;12.074;2023-07-13T03:07:12;18.60;99.90
3628;DHT22;1830;49.000;12.074;2023-07-13T03:09:39;18.60;99.90
3628;DHT22;1830;49.000;12.074;2023-07-13T03:12:07;18.50;99.90
3628;DHT22;1830;49.000;12.074;2023-07-13T03:14:34;18.50;99.90
3628;DHT22;1830;49.000;12.074;2023-07-13T03:17:00;18.50;99.90
3628;DHT22;1830;49.000;12.074;2023-07-13T03:19:27;18.50;99.90
3628;DHT22;1830;49.000;12.074;2023-07-13T03:21:55;18.50;99.90
3628;DHT22;1830;49.000;12.074;2023-07-13T03:24:22;18.50;99.90
3628;DHT22;1830;49.000;12.074;2023-07-13T03:26:51;18.40;99.90
3628;DHT22;1830;49.000;12.074;2023-07-13T03:29:18;18.50;99.90
3628;DHT22;1830;49.000;12.074;2023-07-13T03:31:44;18.40;99.90
3628;DHT22;1830;49.000;12.074;2023-07-13T03:34:11;18.40;99.90
3628;DHT22;1830;49.000;12.074;2023-07-13T03:36:38;18.40;99.90
3628;DHT22;1830;49.000;12.074;2023-07-13T03:39:06;18.40;99.90
3628;DHT22;1830;49.000;12.074;2023-07-13T03:41:34;18.30;99.90
3628;DHT22;1830;49.000;12.074;2023-07-13T03:44:01;18.30;99.90
3628;DHT22;1830;49.000;12.074;2023-07-13T03:46:28;18.30;99.90
3628;DHT22;1830;49.000;12.074;2023-07-13T03:48:55;18.30;99.90
3628;DHT22;1830;49.000;12.074;2023-07-13T03:51:21;18.30;99.90
3628;DHT22;1830;49.000;12.074;2023-07-13T03:53:49;18.30;99.90
3628;DHT22;1830;49.000;12.074;2023-07-13T03:56:18;18.30;99.90
3628;DHT22;1830;49.000;12.074;2023-07-13T03:58:46;18.30;99.90
3628;DHT22;1830;49.000;12.074;2023-07-13T04:01:15;18.30;99.90
3628;DHT22;1830;49.000;12.074;2023-07-13T04:03:42;18.30;99.90
3628;DHT22;1830;49.000;12.074;2023-07-13T04:06:14;18.20;99.90
3628;DHT22;1830;49.000;12.074;2023-07-13T04:08:48;18.20;99.90
3628;DHT22;1830;49.000;12.074;2023-07-13T04:11:17;18.30;99.90
3628;DHT22;1830;49.000;12.074;2023-07-13T04:13:45;18.20;99.90
3628;DHT22;1830;49.000;12.074;2023-07-13T04:16:12;18.20;99.90
3628;DHT22;1830;49.000;12.074;2023-07-13T04:18:38;18.20;99.90
3628;DHT22;1830;49.000;12.074;2023-07-13T04:21:07;18.20;99.90
3628;DHT22;1830;49.000;12.074;2023-07-13T04:23:34;18.20;99.90
3628;DHT22;1830;49.000;12.074;2023-07-13T04:26:01;18.30;99.90
3628;DHT22;1830;49.000;12.074;2023-07-13T04:28:29;18.30;99.90
3628;DHT22;1830;49.000;12.074;2023-07-13T04:30:56;18.20;99.90
3628;DHT22;1830;49.000;12.074;2023-07-13T04:33:23;18.20;99.90
3628;DHT22;1830;49.000;12.074;2023-07-13T04:35:51;18.30;99.90
3628;DHT22;1830;49.000;12.074;2023-07-13T04:38:21;18.40;99.90
3628;DHT22;1830;49.000;12.074;2023-07-13T04:40:50;18.40;99.90
3628;DHT22;1830;49.000;12.074;2023-07-13T04:43:17;18.40;99.90
3628;DHT22;1830;49.000;12.074;2023-07-13T04:45:45;18.40;99.90
3628;DHT22;1830;49.000;12.074;2023-07-13T04:48:12;18.40;99.90
3628;DHT22;1830;49.000;12.074;2023-07-13T04:50:39;18.40;99.90
3628;DHT22;1830;49.000;12.074;2023-07-13T04:53:06;18.50;99.90
3628;DHT22;1830;49.000;12.074;2023-07-13T04:55:32;18.50;99.90
3628;DHT22;1830;49.000;12.074;2023-07-13T04:58:00;18.50;99.90
3628;DHT22;1830;49.000;12.074;2023-07-13T05:00:28;18.60;99.90
3628;DHT22;1830;49.000;12.074;2023-07-13T05:02:57;18.60;99.90
3628;DHT22;1830;49.000;12.074;2023-07-13T05:05:25;18.50;99.90
3628;DHT22;1830;49.000;12.074;2023-07-13T05:07:52;18.50;99.90
3628;DHT22;1830;49.000;12.074;2023-07-13T05:10:19;18.50;99.90
3628;DHT22;1830;49.000;12.074;2023-07-13T05:12:46;18.50;99.90
3628;DHT22;1830;49.000;12.074;2023-07-13T05:15:13;18.50;99.90
3628;DHT22;1830;49.000;12.074;2023-07-13T05:17:40;18.50;99.90
3628;DHT22;1830;49.000;12.074;2023-07-13T05:20:09;18.60;99.90
3628;DHT22;1830;49.000;12.074;2023-07-13T05:22:36;18.50;99.90
3628;DHT22;1830;49.000;12.074;2023-07-13T05:25:05;18.60;99.90
3628;DHT22;1830;49.000;12.074;2023-07-13T05:27:32;18.60;99.90
3628;DHT22;1830;49.000;12.074;2023-07-13T05:29:59;18.60;99.90
3628;DHT22;1830;49.000;12.074;2023-07-13T05:32:26;18.70;99.90
3628;DHT22;1830;49.000;12.074;2023-07-13T05:34:53;18.70;99.90
3628;DHT22;1830;49.000;12.074;2023-07-13T05:37:21;18.70;99.90
3628;DHT22;1830;49.000;12.074;2023-07-13T05:39:48;18.70;99.90
3628;DHT22;1830;49.000;12.074;2023-07-13T05:42:14;18.70;99.90
3628;DHT22;1830;49.000;12.074;2023-07-13T05:44:41;18.80;99.90
3628;DHT22;1830;49.000;12.074;2023-07-13T05:47:08;18.80;99.90
3628;DHT22;1830;49.000;12.074;2023-07-13T05:49:35;18.80;99.90
3628;DHT22;1830;49.000;12.074;2023-07-13T05:52:02;18.90;99.90
3628;DHT22;1830;49.000;12.074;2023-07-13T05:54:30;19.00;99.90
3628;DHT22;1830;49.000;12.074;2023-07-13T05:56:56;19.00;99.90
3628;DHT22;1830;49.000;12.074;2023-07-13T05:59:23;18.90;99.90
3628;DHT22;1830;49.000;12.074;2023-07-13T06:01:51;18.90;99.90
3628;DHT22;1830;49.000;12.074;2023-07-13T06:04:18;18.90;99.90
3628;DHT22;1830;49.000;12.074;2023-07-13T06:06:45;18.80;99.90
3628;DHT22;1830;49.000;12.074;2023-07-13T06:09:12;18.80;99.90
3628;DHT22;1830;49.000;12.074;2023-07-13T06:11:40;18.80;99.90
3628;DHT22;1830;49.000;12.074;2023-07-13T06:14:07;18.80;99.90
3628;DHT22;1830;49.000;12.074;2023-07-13T06:16:33;18.80;99.90
3628;DHT22;1830;49.000;12.074;2023-07-13T06:19:01;18.80;99.90
3628;DHT22;1830;49.000;12.074;2023-07-13T06:21:27;18.90;99.90
3628;DHT22;1830;49.000;12.074;2023-07-13T06:23:54;19.00;99.90
3628;DHT22;1830;49.000;12.074;2023-07-13T06:26:21;19.00;99.90
3628;DHT22;1830;49.000;12.074;2023-07-13T06:28:50;19.10;99.90
3628;DHT22;1830;49.000;12.074;2023-07-13T06:31:16;19.10;99.90
3628;DHT22;1830;49.000;12.074;2023-07-13T06:33:44;19.00;99.90
3628;DHT22;1830;49.000;12.074;2023-07-13T06:36:10;19.00;99.90
3628;DHT22;1830;49.000;12.074;2023-07-13T06:38:37;19.10;99.90
3628;DHT22;1830;49.000;12.074;2023-07-13T06:41:05;19.10;99.90
3628;DHT22;1830;49.000;12.074;2023-07-13T06:43:32;19.20;99.90
3628;DHT22;1830;49.000;12.074;2023-07-13T06:46:00;19.20;99.90
3628;DHT22;1830;49.000;12.074;2023-07-13T06:48:28;19.30;99.90
3628;DHT22;1830;49.000;12.074;2023-07-13T06:50:54;19.30;99.90
3628;DHT22;1830;49.000;12.074;2023-07-13T06:53:22;19.40;99.90
3628;DHT22;1830;49.000;12.074;2023-07-13T06:55:49;19.40;99.90
3628;DHT22;1830;49.000;12.074;2023-07-13T06:58:17;19.30;99.90
3628;DHT22;1830;49.000;12.074;2023-07-13T07:00:43;19.40;99.90
3628;DHT22;1830;49.000;12.074;2023-07-13T07:03:12;19.40;99.90
3628;DHT22;1830;49.000;12.074;2023-07-13T07:05:38;19.40;99.90
3628;DHT22;1830;49.000;12.074;2023-07-13T07:08:05;19.50;99.90
3628;DHT22;1830;49.000;12.074;2023-07-13T07:10:33;19.50;99.90
3628;DHT22;1830;49.000;12.074;2023-07-13T07:12:59;19.60;99.90
3628;DHT22;1830;49.000;12.074;2023-07-13T07:15:26;19.70;99.90
3628;DHT22;1830;49.000;12.074;2023-07-13T07:17:53;19.80;99.90
3628;DHT22;1830;49.000;12.074;2023-07-13T07:20:21;19.90;99.90
3628;DHT22;1830;49.000;12.074;2023-07-13T07:22:48;19.90;99.90
3628;DHT22;1830;49.000;12.074;2023-07-13T07:25:15;20.10;99.90
3628;DHT22;1830;49.000;12.074;2023-07-13T07:27:42;20.20;99.90
3628;DHT22;1830;49.000;12.074;2023-07-13T07:30:09;20.20;99.90
3628;DHT22;1830;49.000;12.074;2023-07-13T07:32:36;20.30;99.90
3628;DHT22;1830;49.000;12.074;2023-07-13T07:35:03;20.30;99.90
3628;DHT22;1830;49.000;12.074;2023-07-13T07:37:32;20.50;99.90
3628;DHT22;1830;49.000;12.074;2023-07-13T07:39:58;20.70;99.90
3628;DHT22;1830;49.000;12.074;2023-07-13T07:42:25;20.80;99.90
3628;DHT22;1830;49.000;12.074;2023-07-13T07:44:52;20.70;99.90
3628;DHT22;1830;49.000;12.074;2023-07-13T07:47:19;20.60;99.90
3628;DHT22;1830;49.000;12.074;2023-07-13T07:49:45;20.60;99.90
3628;DHT22;1830;49.000;12.074;2023-07-13T07:52:12;20.60;99.90
3628;DHT22;1830;49.000;12.074;2023-07-13T07:54:40;20.60;99.90
3628;DHT22;1830;49.000;12.074;2023-07-13T07:57:07;20.60;99.90
3628;DHT22;1830;49.000;12.074;2023-07-13T07:59:36;20.50;99.90
3628;DHT22;1830;49.000;12.074;2023-07-13T08:02:04;20.50;99.90
3628;DHT22;1830;49.000;12.074;2023-07-13T08:04:30;20.60;99.90
3628;DHT22;1830;49.000;12.074;2023-07-13T08:06:57;20.60;99.90
3628;DHT22;1830;49.000;12.074;2023-07-13T08:09:24;20.70;99.90
3628;DHT22;1830;49.000;12.074;2023-07-13T08:11:52;20.80;99.90
3628;DHT22;1830;49.000;12.074;2023-07-13T08:14:20;20.90;99.90
3628;DHT22;1830;49.000;12.074;2023-07-13T08:16:47;20.90;99.90
3628;DHT22;1830;49.000;12.074;2023-07-13T08:19:13;21.00;99.90
3628;DHT22;1830;49.000;12.074;2023-07-13T08:21:40;21.00;99.90
3628;DHT22;1830;49.000;12.074;2023-07-13T08:24:08;21.00;99.90
3628;DHT22;1830;49.000;12.074;2023-07-13T08:26:35;21.00;99.90
3628;DHT22;1830;49.000;12.074;2023-07-13T08:29:04;20.90;99.90
3628;DHT22;1830;49.000;12.074;2023-07-13T08:31:30;21.10;99.90
3628;DHT22;1830;49.000;12.074;2023-07-13T08:33:57;21.10;99.80
3628;DHT22;1830;49.000;12.074;2023-07-13T08:36:25;21.10;99.90
3628;DHT22;1830;49.000;12.074;2023-07-13T08:38:52;21.20;99.90
3628;DHT22;1830;49.000;12.074;2023-07-13T08:41:20;21.20;99.90
3628;DHT22;1830;49.000;12.074;2023-07-13T08:43:49;21.30;99.90
3628;DHT22;1830;49.000;12.074;2023-07-13T08:46:24;21.30;99.90
3628;DHT22;1830;49.000;12.074;2023-07-13T08:48:53;21.40;98.70
3628;DHT22;1830;49.000;12.074;2023-07-13T08:51:33;21.50;98.40
3628;DHT22;1830;49.000;12.074;2023-07-13T08:54:03;21.50;97.80
3628;DHT22;1830;49.000;12.074;2023-07-13T08:56:32;21.50;97.30
3628;DHT22;1830;49.000;12.074;2023-07-13T08:59:01;21.50;96.50
3628;DHT22;1830;49.000;12.074;2023-07-13T09:01:41;21.50;97.20
3628;DHT22;1830;49.000;12.074;2023-07-13T09:04:14;21.60;95.60
3628;DHT22;1830;49.000;12.074;2023-07-13T09:06:55;21.60;95.40
3628;DHT22;1830;49.000;12.074;2023-07-13T09:09:45;21.60;96.00
3628;DHT22;1830;49.000;12.074;2023-07-13T09:12:18;21.90;95.80
3628;DHT22;1830;49.000;12.074;2023-07-13T09:14:51;21.90;94.90
3628;DHT22;1830;49.000;12.074;2023-07-13T09:17:23;21.90;93.00
3628;DHT22;1830;49.000;12.074;2023-07-13T09:19:56;21.90;93.90
3628;DHT22;1830;49.000;12.074;2023-07-13T09:22:26;22.00;94.80
3628;DHT22;1830;49.000;12.074;2023-07-13T09:25:00;22.00;94.30
3628;DHT22;1830;49.000;12.074;2023-07-13T09:27:33;22.10;93.60
3628;DHT22;1830;49.000;12.074;2023-07-13T09:30:23;21.90;93.70
3628;DHT22;1830;49.000;12.074;2023-07-13T09:32:53;21.90;94.00
3628;DHT22;1830;49.000;12.074;2023-07-13T09:35:25;21.90;95.00
3628;DHT22;1830;49.000;12.074;2023-07-13T09:37:57;21.80;95.20
3628;DHT22;1830;49.000;12.074;2023-07-13T09:40:38;21.80;96.20
3628;DHT22;1830;49.000;12.074;2023-07-13T09:43:08;21.90;97.00
3628;DHT22;1830;49.000;12.074;2023-07-13T09:45:37;22.10;95.70
3628;DHT22;1830;49.000;12.074;2023-07-13T09:48:10;22.00;94.80
3628;DHT22;1830;49.000;12.074;2023-07-13T09:50:39;22.10;93.70
3628;DHT22;1830;49.000;12.074;2023-07-13T09:53:12;22.10;91.80
3628;DHT22;1830;49.000;12.074;2023-07-13T09:55:39;22.20;89.90
3628;DHT22;1830;49.000;12.074;2023-07-13T09:58:10;22.20;89.70
3628;DHT22;1830;49.000;12.074;2023-07-13T10:00:38;22.20;89.00
3628;DHT22;1830;49.000;12.074;2023-07-13T10:03:17;22.20;90.10
3628;DHT22;1830;49.000;12.074;2023-07-13T10:05:47;22.20;89.30
3628;DHT22;1830;49.000;12.074;2023-07-13T10:08:18;22.30;88.20
3628;DHT22;1830;49.000;12.074;2023-07-13T10:10:45;22.40;89.90
3628;DHT22;1830;49.000;12.074;2023-07-13T10:13:26;22.40;90.20
3628;DHT22;1830;49.000;12.074;2023-07-13T10:15:54;22.50;90.30
3628;DHT22;1830;49.000;12.074;2023-07-13T10:18:24;22.60;90.60
3628;DHT22;1830;49.000;12.074;2023-07-13T10:20:54;22.70;90.90
3628;DHT22;1830;49.000;12.074;2023-07-13T10:23:24;22.80;90.40
3628;DHT22;1830;49.000;12.074;2023-07-13T10:25:53;22.80;89.30
3628;DHT22;1830;49.000;12.074;2023-07-13T10:28:27;23.00;89.10
3628;DHT22;1830;49.000;12.074;2023-07-13T10:30:56;23.10;89.30
3628;DHT22;1830;49.000;12.074;2023-07-13T10:33:26;23.30;87.30
3628;DHT22;1830;49.000;12.074;2023-07-13T10:36:05;23.30;85.50
3628;DHT22;1830;49.000;12.074;2023-07-13T10:38:38;23.30;86.40
3628;DHT22;1830;49.000;12.074;2023-07-13T10:41:09;23.30;86.70
3628;DHT22;1830;49.000;12.074;2023-07-13T10:43:42;23.30;84.80
3628;DHT22;1830;49.000;12.074;2023-07-13T10:46:12;23.20;84.50
3628;DHT22;1830;49.000;12.074;2023-07-13T10:48:43;23.20;84.80
3628;DHT22;1830;49.000;12.074;2023-07-13T10:51:18;23.10;85.20
3628;DHT22;1830;49.000;12.074;2023-07-13T10:53:47;23.10;85.60
3628;DHT22;1830;49.000;12.074;2023-07-13T10:56:23;23.20;86.10
3628;DHT22;1830;49.000;12.074;2023-07-13T10:59:02;23.20;86.40
3628;DHT22;1830;49.000;12.074;2023-07-13T11:01:41;23.10;85.40
3628;DHT22;1830;49.000;12.074;2023-07-13T11:04:22;23.10;86.20
3628;DHT22;1830;49.000;12.074;2023-07-13T11:06:52;23.10;84.10
3628;DHT22;1830;49.000;12.074;2023-07-13T11:09:35;23.10;85.10
3628;DHT22;1830;49.000;12.074;2023-07-13T11:12:07;23.10;82.90
3628;DHT22;1830;49.000;12.074;2023-07-13T11:14:43;23.20;83.10
3628;DHT22;1830;49.000;12.074;2023-07-13T11:17:35;23.30;81.70
3628;DHT22;1830;49.000;12.074;2023-07-13T11:20:21;23.30;81.80
3628;DHT22;1830;49.000;12.074;2023-07-13T11:22:51;23.20;81.10
3628;DHT22;1830;49.000;12.074;2023-07-13T11:25:27;23.20;80.60
3628;DHT22;1830;49.000;12.074;2023-07-13T11:28:14;23.30;79.40
3628;DHT22;1830;49.000;12.074;2023-07-13T11:30:44;23.50;82.30
3628;DHT22;1830;49.000;12.074;2023-07-13T11:33:16;23.60;80.10
3628;DHT22;1830;49.000;12.074;2023-07-13T11:35:57;23.70;77.80
3628;DHT22;1830;49.000;12.074;2023-07-13T11:38:32;23.90;77.60
3628;DHT22;1830;49.000;12.074;2023-07-13T11:41:02;24.10;77.80
3628;DHT22;1830;49.000;12.074;2023-07-13T11:43:29;24.10;76.70
3628;DHT22;1830;49.000;12.074;2023-07-13T11:45:59;24.30;76.30
3628;DHT22;1830;49.000;12.074;2023-07-13T11:48:38;24.40;75.70
3628;DHT22;1830;49.000;12.074;2023-07-13T11:51:16;24.60;76.80
3628;DHT22;1830;49.000;12.074;2023-07-13T11:53:47;24.60;74.80
3628;DHT22;1830;49.000;12.074;2023-07-13T11:56:15;24.80;75.10
3628;DHT22;1830;49.000;12.074;2023-07-13T11:58:42;24.80;73.70
3628;DHT22;1830;49.000;12.074;2023-07-13T12:01:20;25.00;73.70
3628;DHT22;1830;49.000;12.074;2023-07-13T12:03:47;25.00;73.10
3628;DHT22;1830;49.000;12.074;2023-07-13T12:06:28;25.20;74.00
3628;DHT22;1830;49.000;12.074;2023-07-13T12:08:58;25.50;74.50
3628;DHT22;1830;49.000;12.074;2023-07-13T12:11:27;25.30;72.50
3628;DHT22;1830;49.000;12.074;2023-07-13T12:13:54;25.40;73.20
3628;DHT22;1830;49.000;12.074;2023-07-13T12:16:26;25.20;72.30
3628;DHT22;1830;49.000;12.074;2023-07-13T12:18:54;25.00;73.40
3628;DHT22;1830;49.000;12.074;2023-07-13T12:21:29;24.70;72.10
3628;DHT22;1830;49.000;12.074;2023-07-13T12:23:56;24.80;73.50
3628;DHT22;1830;49.000;12.074;2023-07-13T12:26:23;24.50;72.90
3628;DHT22;1830;49.000;12.074;2023-07-13T12:28:53;24.80;72.80
3628;DHT22;1830;49.000;12.074;2023-07-13T12:31:30;25.00;72.50
3628;DHT22;1830;49.000;12.074;2023-07-13T12:33:59;25.40;72.70
3628;DHT22;1830;49.000;12.074;2023-07-13T12:36:27;25.50;71.80
3628;DHT22;1830;49.000;12.074;2023-07-13T12:38:57;25.70;70.60
3628;DHT22;1830;49.000;12.074;2023-07-13T12:41:29;25.80;70.10
3628;DHT22;1830;49.000;12.074;2023-07-13T12:43:56;25.90;68.70
3628;DHT22;1830;49.000;12.074;2023-07-13T12:46:24;26.10;69.80
3628;DHT22;1830;49.000;12.074;2023-07-13T12:48:54;26.10;67.20
3628;DHT22;1830;49.000;12.074;2023-07-13T12:51:25;26.30;67.50
3628;DHT22;1830;49.000;12.074;2023-07-13T12:53:57;26.40;68.10
3628;DHT22;1830;49.000;12.074;2023-07-13T12:56:27;26.40;66.10
3628;DHT22;1830;49.000;12.074;2023-07-13T12:59:00;26.50;67.70
3628;DHT22;1830;49.000;12.074;2023-07-13T13:01:29;26.60;66.60
3628;DHT22;1830;49.000;12.074;2023-07-13T13:03:56;26.70;65.70
3628;DHT22;1830;49.000;12.074;2023-07-13T13:06:25;26.70;67.30
3628;DHT22;1830;49.000;12.074;2023-07-13T13:08:56;26.60;65.00
3628;DHT22;1830;49.000;12.074;2023-07-13T13:11:25;26.70;65.40
3628;DHT22;1830;49.000;12.074;2023-07-13T13:13:53;26.80;65.70
3628;DHT22;1830;49.000;12.074;2023-07-13T13:16:22;26.90;64.50
3628;DHT22;1830;49.000;12.074;2023-07-13T13:18:51;26.60;63.90
3628;DHT22;1830;49.000;12.074;2023-07-13T13:21:18;26.70;64.50
3628;DHT22;1830;49.000;12.074;2023-07-13T13:23:46;26.90;66.10
3628;DHT22;1830;49.000;12.074;2023-07-13T13:26:15;27.10;64.10
3628;DHT22;1830;49.000;12.074;2023-07-13T13:28:42;27.20;62.70
3628;DHT22;1830;49.000;12.074;2023-07-13T13:31:10;27.30;62.20
3628;DHT22;1830;49.000;12.074;2023-07-13T13:33:38;27.30;61.70
3628;DHT22;1830;49.000;12.074;2023-07-13T13:36:13;27.30;59.90
3628;DHT22;1830;49.000;12.074;2023-07-13T13:38:41;27.50;62.60
3628;DHT22;1830;49.000;12.074;2023-07-13T13:41:10;27.60;62.10
3628;DHT22;1830;49.000;12.074;2023-07-13T13:43:40;27.50;62.00
3628;DHT22;1830;49.000;12.074;2023-07-13T13:46:14;27.10;61.40
3628;DHT22;1830;49.000;12.074;2023-07-13T13:48:42;27.40;62.00
3628;DHT22;1830;49.000;12.074;2023-07-13T13:51:15;27.00;60.30
3628;DHT22;1830;49.000;12.074;2023-07-13T13:53:42;26.70;60.70
3628;DHT22;1830;49.000;12.074;2023-07-13T13:56:09;26.60;61.90
3628;DHT22;1830;49.000;12.074;2023-07-13T13:58:36;26.40;61.60
3628;DHT22;1830;49.000;12.074;2023-07-13T14:01:04;26.30;62.70
3628;DHT22;1830;49.000;12.074;2023-07-13T14:03:34;26.40;63.00
3628;DHT22;1830;49.000;12.074;2023-07-13T14:06:00;26.30;62.10
3628;DHT22;1830;49.000;12.074;2023-07-13T14:08:27;26.40;63.40
3628;DHT22;1830;49.000;12.074;2023-07-13T14:10:56;26.40;61.70
3628;DHT22;1830;49.000;12.074;2023-07-13T14:13:27;26.40;62.30
3628;DHT22;1830;49.000;12.074;2023-07-13T14:15:54;26.40;62.90
3628;DHT22;1830;49.000;12.074;2023-07-13T14:18:23;26.50;60.30
3628;DHT22;1830;49.000;12.074;2023-07-13T14:20:49;26.50;59.90
3628;DHT22;1830;49.000;12.074;2023-07-13T14:23:18;26.50;59.80
3628;DHT22;1830;49.000;12.074;2023-07-13T14:25:45;26.40;59.10
3628;DHT22;1830;49.000;12.074;2023-07-13T14:28:20;26.10;59.70
3628;DHT22;1830;49.000;12.074;2023-07-13T14:30:47;26.00;60.70
3628;DHT22;1830;49.000;12.074;2023-07-13T14:33:14;26.00;59.30
3628;DHT22;1830;49.000;12.074;2023-07-13T14:35:43;26.20;60.30
3628;DHT22;1830;49.000;12.074;2023-07-13T14:38:12;26.20;60.40
3628;DHT22;1830;49.000;12.074;2023-07-13T14:40:40;26.20;59.60
3628;DHT22;1830;49.000;12.074;2023-07-13T14:43:12;26.40;59.60
3628;DHT22;1830;49.000;12.074;2023-07-13T14:45:44;26.50;58.60
3628;DHT22;1830;49.000;12.074;2023-07-13T14:48:17;26.70;59.40
3628;DHT22;1830;49.000;12.074;2023-07-13T14:50:47;26.80;59.60
3628;DHT22;1830;49.000;12.074;2023-07-13T14:53:14;26.80;59.60
3628;DHT22;1830;49.000;12.074;2023-07-13T14:55:40;26.90;58.90
3628;DHT22;1830;49.000;12.074;2023-07-13T14:58:08;26.90;58.70
3628;DHT22;1830;49.000;12.074;2023-07-13T15:00:35;26.90;58.70
3628;DHT22;1830;49.000;12.074;2023-07-13T15:03:03;27.00;58.40
3628;DHT22;1830;49.000;12.074;2023-07-13T15:05:32;27.10;58.20
3628;DHT22;1830;49.000;12.074;2023-07-13T15:08:02;27.10;58.70
3628;DHT22;1830;49.000;12.074;2023-07-13T15:10:31;27.20;59.40
3628;DHT22;1830;49.000;12.074;2023-07-13T15:12:59;27.10;59.10
3628;DHT22;1830;49.000;12.074;2023-07-13T15:15:28;26.80;58.50
3628;DHT22;1830;49.000;12.074;2023-07-13T15:17:56;26.50;58.70
3628;DHT22;1830;49.000;12.074;2023-07-13T15:20:28;26.40;58.90
3628;DHT22;1830;49.000;12.074;2023-07-13T15:22:55;26.60;59.70
3628;DHT22;1830;49.000;12.074;2023-07-13T15:25:26;26.60;59.30
3628;DHT22;1830;49.000;12.074;2023-07-13T15:27:54;26.60;59.30
3628;DHT22;1830;49.000;12.074;2023-07-13T15:30:22;26.60;57.60
3628;DHT22;1830;49.000;12.074;2023-07-13T15:32:51;26.50;57.50
3628;DHT22;1830;49.000;12.074;2023-07-13T15:35:19;26.40;57.60
3628;DHT22;1830;49.000;12.074;2023-07-13T15:37:49;26.30;58.70
3628;DHT22;1830;49.000;12.074;2023-07-13T15:40:16;26.10;59.70
3628;DHT22;1830;49.000;12.074;2023-07-13T15:42:45;26.00;60.40
3628;DHT22;1830;49.000;12.074;2023-07-13T15:45:16;26.10;60.30
3628;DHT22;1830;49.000;12.074;2023-07-13T15:47:44;26.00;60.00
3628;DHT22;1830;49.000;12.074;2023-07-13T15:50:14;26.10;60.70
3628;DHT22;1830;49.000;12.074;2023-07-13T15:52:43;26.10;59.70
3628;DHT22;1830;49.000;12.074;2023-07-13T15:55:12;26.10;59.40